createdAt,value
2022-09-30T00:00:22.648Z,7.73
2022-09-30T00:02:51.664Z,7.79
2022-09-30T00:05:20.835Z,7.87
2022-09-30T00:07:50.321Z,7.91
2022-09-30T00:10:20.675Z,7.87
2022-09-30T00:12:49.678Z,7.85
2022-09-30T00:15:20.010Z,7.85
2022-09-30T00:17:49.109Z,7.79
2022-09-30T00:20:19.550Z,7.69
2022-09-30T00:22:48.707Z,7.69
2022-09-30T00:25:17.937Z,7.69
2022-09-30T00:27:48.410Z,7.74
2022-09-30T00:30:17.567Z,7.76
2022-09-30T00:32:46.601Z,7.79
2022-09-30T00:35:20.459Z,7.83
2022-09-30T00:37:51.473Z,7.87
2022-09-30T00:40:21.963Z,7.94
2022-09-30T00:42:52.433Z,7.96
2022-09-30T00:45:21.761Z,7.97
2022-09-30T00:47:55.378Z,8.03
2022-09-30T00:50:34.319Z,8.04
2022-09-30T00:53:10.112Z,8.10
2022-09-30T00:55:52.534Z,8.06
2022-09-30T00:58:29.015Z,8.03
2022-09-30T01:01:00.056Z,8.08
2022-09-30T01:03:33.141Z,8.06
2022-09-30T01:06:03.169Z,8.08
2022-09-30T01:08:34.629Z,8.03
2022-09-30T01:11:07.992Z,7.99
2022-09-30T01:13:40.702Z,8.02
2022-09-30T01:16:42.353Z,8.02
2022-09-30T01:19:27.607Z,8.00
2022-09-30T01:22:25.459Z,7.96
2022-09-30T01:25:26.505Z,7.90
2022-09-30T01:28:25.987Z,7.78
2022-09-30T01:31:15.525Z,7.68
2022-09-30T01:33:53.880Z,7.61
2022-09-30T01:36:35.473Z,7.53
2022-09-30T01:39:30.621Z,7.61
2022-09-30T01:42:11.116Z,7.57
2022-09-30T01:44:48.891Z,7.57
2022-09-30T01:47:26.415Z,7.60
2022-09-30T01:50:02.045Z,7.61
2022-09-30T01:52:40.000Z,7.57
2022-09-30T01:55:14.922Z,7.51
2022-09-30T01:57:52.766Z,7.48
2022-09-30T02:00:22.245Z,7.54
2022-09-30T02:02:57.394Z,7.55
2022-09-30T02:05:32.101Z,7.54
2022-09-30T02:08:06.831Z,7.56
2022-09-30T02:10:44.916Z,7.58
2022-09-30T02:13:20.194Z,7.60
2022-09-30T02:15:54.741Z,7.55
2022-09-30T02:18:32.442Z,7.55
2022-09-30T02:21:05.244Z,7.51
2022-09-30T02:23:40.699Z,7.53
2022-09-30T02:26:15.349Z,7.52
2022-09-30T02:28:49.534Z,7.56
2022-09-30T02:31:21.995Z,7.57
2022-09-30T02:33:57.558Z,7.63
2022-09-30T02:36:31.522Z,7.62
2022-09-30T02:39:06.065Z,7.59
2022-09-30T02:41:39.836Z,7.54
2022-09-30T02:44:09.241Z,7.61
2022-09-30T02:46:47.714Z,7.57
2022-09-30T02:49:24.180Z,7.53
2022-09-30T02:52:08.263Z,7.51
2022-09-30T02:54:48.330Z,7.55
2022-09-30T03:01:25.343Z,7.54
2022-09-30T03:03:57.734Z,7.52
2022-09-30T03:06:28.726Z,7.52
2022-09-30T03:08:58.126Z,7.49
2022-09-30T03:11:30.022Z,7.46
2022-09-30T03:14:25.964Z,7.44
2022-09-30T03:17:24.368Z,7.41
2022-09-30T03:20:10.070Z,7.41
2022-09-30T03:23:01.430Z,7.40
2022-09-30T03:25:41.126Z,7.37
2022-09-30T03:28:22.835Z,7.34
2022-09-30T03:30:58.777Z,7.34
2022-09-30T03:33:36.770Z,7.33
2022-09-30T03:36:12.490Z,7.35
2022-09-30T03:38:51.758Z,7.33
2022-09-30T03:41:28.497Z,7.33
2022-09-30T03:44:03.172Z,7.36
2022-09-30T03:46:37.311Z,7.35
2022-09-30T03:49:09.696Z,7.35
2022-09-30T03:51:40.393Z,7.31
2022-09-30T03:54:12.682Z,7.37
2022-09-30T03:56:43.105Z,7.36
2022-09-30T03:59:14.340Z,7.36
2022-09-30T04:01:43.465Z,7.38
2022-09-30T04:04:13.326Z,7.44
2022-09-30T04:06:42.404Z,7.42
2022-09-30T04:09:12.821Z,7.41
2022-09-30T04:11:41.812Z,7.42
2022-09-30T04:14:10.973Z,7.43
2022-09-30T04:16:40.679Z,7.45
2022-09-30T04:19:10.238Z,7.46
2022-09-30T04:21:39.265Z,7.49
2022-09-30T04:24:08.823Z,7.51
2022-09-30T04:26:39.245Z,7.51
2022-09-30T04:29:08.413Z,7.54
2022-09-30T04:31:37.522Z,7.54
2022-09-30T04:34:06.505Z,7.55
2022-09-30T04:36:35.511Z,7.56
2022-09-30T04:39:04.663Z,7.59
2022-09-30T04:41:34.212Z,7.65
2022-09-30T04:44:06.672Z,7.64
2022-09-30T04:46:37.078Z,7.64
2022-09-30T04:49:09.343Z,7.66
2022-09-30T04:51:43.941Z,7.68
2022-09-30T04:54:13.482Z,7.65
2022-09-30T04:56:42.454Z,7.67
2022-09-30T04:59:12.771Z,7.69
2022-09-30T05:01:43.397Z,7.70
2022-09-30T05:04:13.071Z,7.70
2022-09-30T05:06:42.145Z,7.72
2022-09-30T05:09:11.289Z,7.65
2022-09-30T05:11:42.196Z,7.68
2022-09-30T05:14:12.779Z,7.67
2022-09-30T05:16:41.834Z,7.67
2022-09-30T05:19:11.128Z,7.68
2022-09-30T05:21:42.022Z,7.66
2022-09-30T05:24:11.047Z,7.67
2022-09-30T05:26:40.621Z,7.62
2022-09-30T05:29:10.570Z,7.64
2022-09-30T05:31:42.485Z,7.63
2022-09-30T05:34:11.767Z,7.59
2022-09-30T05:36:40.685Z,7.64
2022-09-30T05:39:10.366Z,7.65
2022-09-30T05:41:39.500Z,7.62
2022-09-30T05:44:09.314Z,7.63
2022-09-30T05:46:39.789Z,7.64
2022-09-30T05:49:08.890Z,7.62
2022-09-30T05:51:38.006Z,7.56
2022-09-30T05:54:07.314Z,7.57
2022-09-30T05:56:38.236Z,7.56
2022-09-30T05:59:07.539Z,7.54
2022-09-30T06:01:37.481Z,7.55
2022-09-30T06:04:07.815Z,7.57
2022-09-30T06:06:36.974Z,7.56
2022-09-30T06:09:06.327Z,7.54
2022-09-30T06:11:35.460Z,7.54
2022-09-30T06:14:04.867Z,7.52
2022-09-30T06:16:33.952Z,7.53
2022-09-30T06:19:03.057Z,7.51
2022-09-30T06:21:33.587Z,7.55
2022-09-30T06:24:02.743Z,7.57
2022-09-30T06:26:31.728Z,7.58
2022-09-30T06:29:01.074Z,7.60
2022-09-30T06:31:30.947Z,7.66
2022-09-30T06:34:01.673Z,7.71
2022-09-30T06:36:33.381Z,7.85
2022-09-30T06:39:03.151Z,7.88
2022-09-30T06:41:32.326Z,7.92
2022-09-30T06:44:06.379Z,7.90
2022-09-30T06:46:39.935Z,7.89
2022-09-30T06:49:14.062Z,7.91
2022-09-30T06:51:44.458Z,7.98
2022-09-30T06:54:13.495Z,8.12
2022-09-30T06:56:44.075Z,8.19
2022-09-30T06:59:15.650Z,8.26
2022-09-30T07:01:45.447Z,8.32
2022-09-30T07:04:14.883Z,8.37
2022-09-30T07:06:45.520Z,8.44
2022-09-30T07:09:14.764Z,8.52
2022-09-30T07:11:43.963Z,8.59
2022-09-30T07:14:14.136Z,8.63
2022-09-30T07:16:45.277Z,8.65
2022-09-30T07:19:14.716Z,8.71
2022-09-30T07:21:45.071Z,8.81
2022-09-30T07:24:14.136Z,8.83
2022-09-30T07:26:45.101Z,8.93
2022-09-30T07:29:15.174Z,9.12
2022-09-30T07:31:44.387Z,9.25
2022-09-30T07:34:13.537Z,9.25
2022-09-30T07:36:45.179Z,9.30
2022-09-30T07:39:14.248Z,9.39
2022-09-30T07:41:45.119Z,9.43
2022-09-30T07:44:16.029Z,9.52
2022-09-30T07:46:45.908Z,9.62
2022-09-30T07:49:24.734Z,9.70
2022-09-30T07:51:57.042Z,9.73
2022-09-30T07:54:28.975Z,9.84
2022-09-30T07:57:16.444Z,9.87
2022-09-30T07:59:45.762Z,10.11
2022-09-30T08:02:17.269Z,10.25
2022-09-30T08:04:46.556Z,10.39
2022-09-30T08:07:18.781Z,10.44
2022-09-30T08:09:47.999Z,10.64
2022-09-30T08:12:17.239Z,11.08
2022-09-30T08:14:46.211Z,11.37
2022-09-30T08:17:15.267Z,11.32
2022-09-30T08:19:44.935Z,11.35
2022-09-30T08:22:15.048Z,11.55
2022-09-30T08:24:45.377Z,11.50
2022-09-30T08:27:14.488Z,11.65
2022-09-30T08:29:54.394Z,11.73
2022-09-30T08:32:25.085Z,12.20
2022-09-30T08:34:54.148Z,12.44
2022-09-30T08:37:23.778Z,12.24
2022-09-30T08:39:54.306Z,12.64
2022-09-30T08:42:38.808Z,12.64
2022-09-30T08:45:21.479Z,12.72
2022-09-30T08:48:00.916Z,12.98
2022-09-30T08:50:35.933Z,13.23
2022-09-30T08:53:11.011Z,13.16
2022-09-30T08:55:44.830Z,13.46
2022-09-30T08:58:26.491Z,13.19
2022-09-30T09:01:00.543Z,13.59
2022-09-30T09:03:31.455Z,13.40
2022-09-30T09:06:12.303Z,13.81
2022-09-30T09:08:57.175Z,14.05
2022-09-30T09:11:44.770Z,13.51
2022-09-30T09:14:29.645Z,13.58
2022-09-30T09:17:15.644Z,13.71
2022-09-30T09:19:55.097Z,14.54
2022-09-30T09:22:25.498Z,14.34
2022-09-30T09:24:55.724Z,14.31
2022-09-30T09:30:06.664Z,14.32
2022-09-30T09:32:36.691Z,14.64
2022-09-30T09:35:14.668Z,14.57
2022-09-30T09:38:14.291Z,14.86
2022-09-30T09:40:57.600Z,15.55
2022-09-30T09:43:38.562Z,14.06
2022-09-30T09:46:18.223Z,13.63
2022-09-30T09:48:47.576Z,13.73
2022-09-30T09:51:25.404Z,13.77
2022-09-30T09:53:58.048Z,13.69
2022-09-30T09:56:32.495Z,13.48
2022-09-30T09:59:18.054Z,13.90
2022-09-30T10:01:51.071Z,13.62
2022-09-30T10:04:24.348Z,13.79
2022-09-30T10:06:57.680Z,13.74
2022-09-30T10:09:30.488Z,13.82
2022-09-30T10:12:19.591Z,14.38
2022-09-30T10:14:58.058Z,14.35
2022-09-30T10:17:30.451Z,14.35
2022-09-30T10:20:04.903Z,14.04
2022-09-30T10:22:35.412Z,14.24
2022-09-30T10:25:23.349Z,14.43
2022-09-30T10:27:56.742Z,14.16
2022-09-30T10:30:42.224Z,13.94
2022-09-30T10:33:22.236Z,13.89
2022-09-30T10:36:03.252Z,13.94
2022-09-30T10:38:34.610Z,13.75
2022-09-30T10:41:06.186Z,13.62
2022-09-30T10:43:43.195Z,13.87
2022-09-30T10:46:26.214Z,14.03
2022-09-30T10:48:58.974Z,13.87
2022-09-30T10:51:33.838Z,14.28
2022-09-30T10:54:03.389Z,14.15
2022-09-30T10:56:42.127Z,14.32
2022-09-30T10:59:34.897Z,14.15
2022-09-30T11:02:23.619Z,14.31
2022-09-30T11:05:02.993Z,14.31
2022-09-30T11:07:37.912Z,14.80
2022-09-30T11:10:18.133Z,15.15
2022-09-30T11:12:55.885Z,15.28
2022-09-30T11:15:31.427Z,15.08
2022-09-30T11:18:05.764Z,14.96
2022-09-30T11:20:40.408Z,15.37
2022-09-30T11:23:21.499Z,15.46
2022-09-30T11:26:01.829Z,15.74
2022-09-30T11:28:46.597Z,16.27
2022-09-30T11:31:27.334Z,16.28
2022-09-30T11:34:16.563Z,16.35
2022-09-30T11:36:56.837Z,17.20
2022-09-30T11:39:47.541Z,16.84
2022-09-30T11:42:26.423Z,17.27
2022-09-30T11:45:01.915Z,17.24
2022-09-30T11:47:50.858Z,16.71
2022-09-30T11:50:47.106Z,15.91
2022-09-30T11:53:26.947Z,15.13
2022-09-30T11:56:10.208Z,15.67
2022-09-30T11:58:44.557Z,17.32
2022-09-30T12:01:23.905Z,17.16
2022-09-30T12:04:01.427Z,16.75
2022-09-30T12:06:38.852Z,17.29
2022-09-30T12:09:17.512Z,18.43
2022-09-30T12:11:54.255Z,18.17
2022-09-30T12:14:31.645Z,16.47
2022-09-30T12:17:04.313Z,15.69
2022-09-30T12:19:39.606Z,15.19
2022-09-30T12:22:15.174Z,14.68
2022-09-30T12:24:46.007Z,14.36
2022-09-30T12:27:21.424Z,14.61
2022-09-30T12:30:15.655Z,14.56
2022-09-30T12:33:14.140Z,14.52
2022-09-30T12:35:58.786Z,14.68
2022-09-30T12:38:54.812Z,14.55
2022-09-30T12:41:39.101Z,14.50
2022-09-30T12:44:45.310Z,16.92
2022-09-30T12:47:32.581Z,16.99
2022-09-30T12:50:08.167Z,16.99
2022-09-30T12:52:38.460Z,17.14
2022-09-30T12:55:17.295Z,17.55
2022-09-30T12:57:47.933Z,16.59
2022-09-30T13:00:19.325Z,17.71
2022-09-30T13:02:54.546Z,17.67
2022-09-30T13:05:48.472Z,16.13
2022-09-30T13:09:06.317Z,15.78
2022-09-30T13:11:39.643Z,16.58
2022-09-30T13:14:39.397Z,15.35
2022-09-30T13:17:27.270Z,14.90
2022-09-30T13:19:58.597Z,15.65
2022-09-30T13:23:00.642Z,16.33
2022-09-30T13:25:56.101Z,16.76
2022-09-30T13:28:32.280Z,17.37
2022-09-30T13:31:19.087Z,16.87
2022-09-30T13:34:05.098Z,16.66
2022-09-30T13:36:41.390Z,16.19
2022-09-30T13:39:21.592Z,15.51
2022-09-30T13:42:05.883Z,15.18
2022-09-30T13:44:45.542Z,15.02
2022-09-30T13:47:26.710Z,14.89
2022-09-30T13:50:03.726Z,15.06
2022-09-30T13:52:38.132Z,16.72
2022-09-30T13:55:16.018Z,16.57
2022-09-30T13:57:57.297Z,17.08
2022-09-30T14:00:41.457Z,16.92
2022-09-30T14:03:40.674Z,16.81
2022-09-30T14:06:20.313Z,16.79
2022-09-30T14:09:19.517Z,16.65
2022-09-30T14:12:08.531Z,17.51
2022-09-30T14:15:10.485Z,17.41
2022-09-30T14:18:00.285Z,17.53
2022-09-30T14:20:44.017Z,17.50
2022-09-30T14:23:17.453Z,17.62
2022-09-30T14:25:56.614Z,16.24
2022-09-30T14:28:35.537Z,16.55
2022-09-30T14:31:13.537Z,15.51
2022-09-30T14:33:48.818Z,16.13
2022-09-30T14:36:21.778Z,16.42
2022-09-30T14:38:56.753Z,16.21
2022-09-30T14:41:28.491Z,16.57
2022-09-30T14:44:02.863Z,16.84
2022-09-30T14:46:36.887Z,16.89
2022-09-30T14:49:10.183Z,16.92
2022-09-30T14:51:43.693Z,16.83
2022-09-30T14:54:19.187Z,16.41
2022-09-30T14:56:49.552Z,16.79
2022-09-30T14:59:20.958Z,16.74
2022-09-30T15:01:52.422Z,16.82
2022-09-30T15:04:27.304Z,16.67
2022-09-30T15:07:01.377Z,16.32
2022-09-30T15:09:43.730Z,16.52
2022-09-30T15:12:15.144Z,16.01
2022-09-30T15:14:48.810Z,15.65
2022-09-30T15:17:21.024Z,15.15
2022-09-30T15:19:52.136Z,15.13
2022-09-30T15:22:23.209Z,15.07
2022-09-30T15:24:54.334Z,15.06
2022-09-30T15:27:25.149Z,14.82
2022-09-30T15:30:01.442Z,14.92
2022-09-30T15:32:33.626Z,14.90
2022-09-30T15:35:09.263Z,14.85
2022-09-30T15:37:38.386Z,14.80
2022-09-30T15:40:33.819Z,14.56
2022-09-30T15:43:06.826Z,14.62
2022-09-30T15:45:39.390Z,14.56
2022-09-30T15:48:36.433Z,14.59
2022-09-30T15:51:43.466Z,14.47
2022-09-30T15:54:34.996Z,14.52
2022-09-30T15:57:26.180Z,14.67
2022-09-30T16:00:07.479Z,14.49
2022-09-30T16:02:37.826Z,14.33
2022-09-30T16:05:08.004Z,14.29
2022-09-30T16:07:38.449Z,14.12
2022-09-30T16:10:09.461Z,14.14
2022-09-30T16:12:38.919Z,14.05
2022-09-30T16:15:14.419Z,14.04
2022-09-30T16:17:49.184Z,14.00
2022-09-30T16:20:24.699Z,13.94
2022-09-30T16:22:56.616Z,13.67
2022-09-30T16:25:30.083Z,13.71
2022-09-30T16:28:02.261Z,13.68
2022-09-30T16:30:33.090Z,13.55
2022-09-30T16:33:07.056Z,13.53
2022-09-30T16:35:36.162Z,13.42
2022-09-30T16:38:08.095Z,13.20
2022-09-30T16:40:38.002Z,13.12
2022-09-30T16:43:07.887Z,12.97
2022-09-30T16:45:37.760Z,12.87
2022-09-30T16:48:15.032Z,12.77
2022-09-30T16:50:48.660Z,12.71
2022-09-30T16:53:19.078Z,12.65
2022-09-30T16:55:48.249Z,12.56
2022-09-30T16:58:17.315Z,12.52
2022-09-30T17:00:46.497Z,12.52
2022-09-30T17:03:17.853Z,12.39
2022-09-30T17:05:53.379Z,12.27
2022-09-30T17:08:24.859Z,12.25
2022-09-30T17:10:54.155Z,12.19
2022-09-30T17:13:23.804Z,12.11
2022-09-30T17:15:54.909Z,12.07
2022-09-30T17:18:24.114Z,11.96
2022-09-30T17:20:53.667Z,11.87
2022-09-30T17:23:25.810Z,11.82
2022-09-30T17:25:55.203Z,11.73
2022-09-30T17:28:24.483Z,11.67
2022-09-30T17:30:54.015Z,11.53
2022-09-30T17:33:22.992Z,11.50
2022-09-30T17:36:00.335Z,11.45
2022-09-30T17:38:31.630Z,11.33
2022-09-30T17:41:22.266Z,11.30
2022-09-30T17:43:51.482Z,11.26
2022-09-30T17:46:23.542Z,11.20
2022-09-30T17:48:57.132Z,11.20
2022-09-30T17:51:26.891Z,11.18
2022-09-30T17:53:57.142Z,11.08
2022-09-30T17:56:26.420Z,11.04
2022-09-30T17:58:55.430Z,10.99
2022-09-30T18:01:24.652Z,10.97
2022-09-30T18:03:53.951Z,10.92
2022-09-30T18:06:22.973Z,10.78
2022-09-30T18:08:52.595Z,10.59
2022-09-30T18:11:24.036Z,10.44
2022-09-30T18:13:58.030Z,10.36
2022-09-30T18:16:30.293Z,10.23
2022-09-30T18:19:01.107Z,10.23
2022-09-30T18:21:31.112Z,10.11
2022-09-30T18:24:01.464Z,10.23
2022-09-30T18:26:34.965Z,10.18
2022-09-30T18:29:06.130Z,10.24
2022-09-30T18:31:37.345Z,10.14
2022-09-30T18:34:08.498Z,10.07
2022-09-30T18:36:40.972Z,10.01
2022-09-30T18:39:10.128Z,10.00
2022-09-30T18:41:45.727Z,9.94
2022-09-30T18:44:15.375Z,9.87
2022-09-30T18:46:44.396Z,9.94
2022-09-30T18:49:13.942Z,10.00
2022-09-30T18:51:42.929Z,10.06
2022-09-30T18:54:13.235Z,9.95
2022-09-30T18:56:46.310Z,9.90
2022-09-30T18:59:18.302Z,9.92
2022-09-30T19:01:49.746Z,9.90
2022-09-30T19:04:18.808Z,9.80
2022-09-30T19:06:48.155Z,9.79
2022-09-30T19:09:17.542Z,9.82
2022-09-30T19:11:49.216Z,9.72
2022-09-30T19:14:18.271Z,9.73
2022-09-30T19:16:47.252Z,9.76
2022-09-30T19:19:20.406Z,9.72
2022-09-30T19:21:50.135Z,9.74
2022-09-30T19:24:20.385Z,9.73
2022-09-30T19:26:52.381Z,9.70
2022-09-30T19:29:21.318Z,9.64
2022-09-30T19:31:50.350Z,9.72
2022-09-30T19:34:30.894Z,9.63
2022-09-30T19:37:00.499Z,9.66
2022-09-30T19:39:41.589Z,9.62
2022-09-30T19:42:18.198Z,9.53
2022-09-30T19:44:47.429Z,9.42
2022-09-30T19:47:18.693Z,9.44
2022-09-30T19:49:47.698Z,9.48
2022-09-30T19:52:21.944Z,9.45
2022-09-30T19:54:52.245Z,9.38
2022-09-30T19:57:23.502Z,9.34
2022-09-30T19:59:53.297Z,9.24
2022-09-30T20:02:23.156Z,9.20
2022-09-30T20:04:53.827Z,9.18
2022-09-30T20:07:22.756Z,9.24
2022-09-30T20:09:52.320Z,9.19
2022-09-30T20:12:22.825Z,9.22
2022-09-30T20:15:09.185Z,9.15
2022-09-30T20:17:38.379Z,9.04
2022-09-30T20:20:26.155Z,9.02
2022-09-30T20:22:55.709Z,8.93
2022-09-30T20:25:24.750Z,8.94
2022-09-30T20:27:55.243Z,8.94
2022-09-30T20:30:24.965Z,8.88
2022-09-30T20:32:54.620Z,8.82
2022-09-30T20:35:23.697Z,8.86
2022-09-30T20:37:54.030Z,8.89
2022-09-30T20:40:23.430Z,8.81
2022-09-30T20:42:56.045Z,8.78
2022-09-30T20:45:28.414Z,8.79
2022-09-30T20:47:57.473Z,8.72
2022-09-30T20:50:39.406Z,8.73
2022-09-30T20:53:11.335Z,8.69
2022-09-30T20:55:43.558Z,8.85
2022-09-30T20:58:14.627Z,8.85
2022-09-30T21:00:44.801Z,8.84
2022-09-30T21:03:15.055Z,8.79
2022-09-30T21:05:53.497Z,8.74
2022-09-30T21:08:23.130Z,8.73
2022-09-30T21:10:52.426Z,8.68
2022-09-30T21:13:22.814Z,8.65
2022-09-30T21:16:02.327Z,8.58
2022-09-30T21:18:33.312Z,8.52
2022-09-30T21:21:07.418Z,8.52
2022-09-30T21:23:37.631Z,8.50
2022-09-30T21:26:09.948Z,8.50
2022-09-30T21:28:40.598Z,8.46
2022-09-30T21:31:16.450Z,8.49
2022-09-30T21:33:45.687Z,8.51
2022-09-30T21:36:14.909Z,8.49
2022-09-30T21:38:44.322Z,8.47
2022-09-30T21:41:13.286Z,8.45
2022-09-30T21:43:44.786Z,8.39
2022-09-30T21:46:15.739Z,8.41
2022-09-30T21:48:45.455Z,8.48
2022-09-30T21:51:14.717Z,8.45
2022-09-30T21:53:43.779Z,8.47
2022-09-30T21:56:12.699Z,8.52
2022-09-30T21:58:43.119Z,8.46
2022-09-30T22:01:12.191Z,8.47
2022-09-30T22:03:41.557Z,8.40
2022-09-30T22:06:12.692Z,8.41
2022-09-30T22:08:41.778Z,8.45
2022-09-30T22:11:12.624Z,8.48
2022-09-30T22:13:45.328Z,8.52
2022-09-30T22:16:15.698Z,8.49
2022-09-30T22:18:45.019Z,8.48
2022-09-30T22:21:15.489Z,8.45
2022-09-30T22:23:46.864Z,8.45
2022-09-30T22:26:17.692Z,8.46
2022-09-30T22:28:49.455Z,8.46
2022-09-30T22:31:20.179Z,8.49
2022-09-30T22:34:22.515Z,8.50
2022-09-30T22:37:09.685Z,8.46
2022-09-30T22:39:38.626Z,8.38
2022-09-30T22:42:08.263Z,8.45
2022-09-30T22:44:39.318Z,8.44
2022-09-30T22:47:12.346Z,8.47
2022-09-30T22:49:41.452Z,8.53
2022-09-30T22:52:10.748Z,8.56
2022-09-30T22:54:39.707Z,8.62
2022-09-30T22:57:09.063Z,8.58
2022-09-30T22:59:41.646Z,8.68
2022-09-30T23:02:10.533Z,8.73
2022-09-30T23:04:39.513Z,8.74
2022-09-30T23:07:08.478Z,8.80
2022-09-30T23:09:37.439Z,8.76
2022-09-30T23:12:06.394Z,8.81
2022-09-30T23:14:35.404Z,8.83
2022-09-30T23:17:05.750Z,8.88
2022-09-30T23:19:34.713Z,8.79
2022-09-30T23:22:03.782Z,8.72
2022-09-30T23:24:32.727Z,8.77
2022-09-30T23:27:02.206Z,8.72
2022-09-30T23:29:31.258Z,8.75
2022-09-30T23:32:00.275Z,8.75
2022-09-30T23:34:31.018Z,8.74
2022-09-30T23:37:00.326Z,8.78
2022-09-30T23:39:30.657Z,8.74
2022-09-30T23:41:59.519Z,8.72
2022-09-30T23:44:28.462Z,8.71
2022-09-30T23:47:14.975Z,8.70
2022-09-30T23:49:46.183Z,8.67
2022-09-30T23:52:15.579Z,8.61
2022-09-30T23:54:45.249Z,8.59
2022-09-30T23:57:14.220Z,8.61
2022-09-30T23:59:43.168Z,8.60
